sensor_id;sensor_type;location;lat;lon;timestamp;pressure;altitude;pressure_sealevel;temperature
18161;BMP280;9205;52.032;4.314;2024-01-27T00:00:46;103404.78;;;7.29
18161;BMP280;9205;52.032;4.314;2024-01-27T00:03:13;103405.63;;;7.28
18161;BMP280;9205;52.032;4.314;2024-01-27T00:05:40;103392.97;;;7.28
18161;BMP280;9205;52.032;4.314;2024-01-27T00:08:07;103397.25;;;7.30
18161;BMP280;9205;52.032;4.314;2024-01-27T00:10:36;103397.34;;;7.33
18161;BMP280;9205;52.032;4.314;2024-01-27T00:13:03;103402.41;;;7.33
18161;BMP280;9205;52.032;4.314;2024-01-27T00:15:31;103401.56;;;7.33
18161;BMP280;9205;52.032;4.314;2024-01-27T00:17:58;103405.72;;;7.32
18161;BMP280;9205;52.032;4.314;2024-01-27T00:20:25;103403.16;;;7.31
18161;BMP280;9205;52.032;4.314;2024-01-27T00:22:52;103402.31;;;7.30
18161;BMP280;9205;52.032;4.314;2024-01-27T00:25:20;103398.16;;;7.32
18161;BMP280;9205;52.032;4.314;2024-01-27T00:27:48;103396.38;;;7.30
18161;BMP280;9205;52.032;4.314;2024-01-27T00:30:15;103401.44;;;7.30
18161;BMP280;9205;52.032;4.314;2024-01-27T00:32:43;103405.66;;;7.29
18161;BMP280;9205;52.032;4.314;2024-01-27T00:35:10;103402.22;;;7.27
18161;BMP280;9205;52.032;4.314;2024-01-27T00:37:40;103396.22;;;7.25
18161;BMP280;9205;52.032;4.314;2024-01-27T00:40:09;103401.28;;;7.25
18161;BMP280;9205;52.032;4.314;2024-01-27T00:42:37;103396.31;;;7.27
18161;BMP280;9205;52.032;4.314;2024-01-27T00:45:07;103402.16;;;7.26
18161;BMP280;9205;52.032;4.314;2024-01-27T00:47:34;103397.91;;;7.25
18161;BMP280;9205;52.032;4.314;2024-01-27T00:50:01;103408.00;;;7.23
18161;BMP280;9205;52.032;4.314;2024-01-27T00:52:29;103410.53;;;7.23
18161;BMP280;9205;52.032;4.314;2024-01-27T00:54:56;103412.97;;;7.22
18161;BMP280;9205;52.032;4.314;2024-01-27T00:57:24;103418.72;;;7.16
18161;BMP280;9205;52.032;4.314;2024-01-27T00:59:51;103414.47;;;7.15
18161;BMP280;9205;52.032;4.314;2024-01-27T01:02:19;103422.75;;;7.11
18161;BMP280;9205;52.032;4.314;2024-01-27T01:04:47;103419.22;;;7.06
18161;BMP280;9205;52.032;4.314;2024-01-27T01:07:14;103413.13;;;7.01
18161;BMP280;9205;52.032;4.314;2024-01-27T01:09:41;103416.41;;;6.97
18161;BMP280;9205;52.032;4.314;2024-01-27T01:12:08;103404.41;;;6.92
18161;BMP280;9205;52.032;4.314;2024-01-27T01:14:36;103419.53;;;6.91
18161;BMP280;9205;52.032;4.314;2024-01-27T01:17:03;103422.75;;;6.87
18161;BMP280;9205;52.032;4.314;2024-01-27T01:19:32;103424.38;;;6.85
18161;BMP280;9205;52.032;4.314;2024-01-27T01:22:00;103414.31;;;6.86
18161;BMP280;9205;52.032;4.314;2024-01-27T01:24:27;103425.34;;;6.88
18161;BMP280;9205;52.032;4.314;2024-01-27T01:26:54;103430.44;;;6.90
18161;BMP280;9205;52.032;4.314;2024-01-27T01:29:21;103417.69;;;6.87
18161;BMP280;9205;52.032;4.314;2024-01-27T01:31:49;103417.56;;;6.82
18161;BMP280;9205;52.032;4.314;2024-01-27T01:34:16;103423.59;;;6.86
18161;BMP280;9205;52.032;4.314;2024-01-27T01:36:45;103415.25;;;6.88
18161;BMP280;9205;52.032;4.314;2024-01-27T01:39:14;103410.09;;;6.87
18161;BMP280;9205;52.032;4.314;2024-01-27T01:41:41;103412.63;;;6.87
18161;BMP280;9205;52.032;4.314;2024-01-27T01:44:08;103420.97;;;6.84
18161;BMP280;9205;52.032;4.314;2024-01-27T01:46:35;103407.38;;;6.81
18161;BMP280;9205;52.032;4.314;2024-01-27T01:49:03;103416.66;;;6.80
18161;BMP280;9205;52.032;4.314;2024-01-27T01:51:30;103411.59;;;6.80
18161;BMP280;9205;52.032;4.314;2024-01-27T01:53:59;103420.94;;;6.83
18161;BMP280;9205;52.032;4.314;2024-01-27T01:56:27;103422.63;;;6.82
18161;BMP280;9205;52.032;4.314;2024-01-27T01:58:55;103430.94;;;6.80
18161;BMP280;9205;52.032;4.314;2024-01-27T02:01:22;103424.91;;;6.76
18161;BMP280;9205;52.032;4.314;2024-01-27T02:03:53;103422.31;;;6.73
18161;BMP280;9205;52.032;4.314;2024-01-27T02:06:20;103415.56;;;6.74
18161;BMP280;9205;52.032;4.314;2024-01-27T02:08:48;103409.72;;;6.75
18161;BMP280;9205;52.032;4.314;2024-01-27T02:11:17;103416.56;;;6.79
18161;BMP280;9205;52.032;4.314;2024-01-27T02:13:44;103416.66;;;6.80
18161;BMP280;9205;52.032;4.314;2024-01-27T02:16:11;103425.03;;;6.79
18161;BMP280;9205;52.032;4.314;2024-01-27T02:18:39;103430.09;;;6.79
18161;BMP280;9205;52.032;4.314;2024-01-27T02:21:06;103429.13;;;6.76
18161;BMP280;9205;52.032;4.314;2024-01-27T02:23:33;103428.19;;;6.74
18161;BMP280;9205;52.032;4.314;2024-01-27T02:26:01;103433.13;;;6.71
18161;BMP280;9205;52.032;4.314;2024-01-27T02:28:29;103443.97;;;6.67
18161;BMP280;9205;52.032;4.314;2024-01-27T02:30:58;103436.34;;;6.65
18161;BMP280;9205;52.032;4.314;2024-01-27T02:33:25;103432.25;;;6.69
18161;BMP280;9205;52.032;4.314;2024-01-27T02:35:52;103427.97;;;6.66
18161;BMP280;9205;52.032;4.314;2024-01-27T02:38:20;103430.38;;;6.63
18161;BMP280;9205;52.032;4.314;2024-01-27T02:40:47;103425.34;;;6.65
18161;BMP280;9205;52.032;4.314;2024-01-27T02:43:15;103424.47;;;6.63
18161;BMP280;9205;52.032;4.314;2024-01-27T02:45:43;103433.69;;;6.62
18161;BMP280;9205;52.032;4.314;2024-01-27T02:48:10;103421.03;;;6.61
18161;BMP280;9205;52.032;4.314;2024-01-27T02:50:37;103425.91;;;6.56
18161;BMP280;9205;52.032;4.314;2024-01-27T02:53:04;103416.56;;;6.54
18161;BMP280;9205;52.032;4.314;2024-01-27T02:55:31;103421.63;;;6.54
18161;BMP280;9205;52.032;4.314;2024-01-27T02:57:58;103424.81;;;6.50
18161;BMP280;9205;52.032;4.314;2024-01-27T03:00:27;103433.22;;;6.49
18161;BMP280;9205;52.032;4.314;2024-01-27T03:02:54;103430.75;;;6.50
18161;BMP280;9205;52.032;4.314;2024-01-27T03:05:23;103443.38;;;6.50
18161;BMP280;9205;52.032;4.314;2024-01-27T03:07:50;103434.72;;;6.44
18161;BMP280;9205;52.032;4.314;2024-01-27T03:10:17;103440.56;;;6.43
18161;BMP280;9205;52.032;4.314;2024-01-27T03:12:44;103441.50;;;6.45
18161;BMP280;9205;52.032;4.314;2024-01-27T03:15:11;103443.13;;;6.44
18161;BMP280;9205;52.032;4.314;2024-01-27T03:17:40;103447.38;;;6.45
18161;BMP280;9205;52.032;4.314;2024-01-27T03:20:09;103450.69;;;6.43
18161;BMP280;9205;52.032;4.314;2024-01-27T03:22:36;103448.03;;;6.40
18161;BMP280;9205;52.032;4.314;2024-01-27T03:25:06;103448.88;;;6.39
18161;BMP280;9205;52.032;4.314;2024-01-27T03:27:34;103452.09;;;6.36
18161;BMP280;9205;52.032;4.314;2024-01-27T03:30:02;103444.50;;;6.35
18161;BMP280;9205;52.032;4.314;2024-01-27T03:32:29;103444.50;;;6.35
18161;BMP280;9205;52.032;4.314;2024-01-27T03:34:59;103449.53;;;6.35
18161;BMP280;9205;52.032;4.314;2024-01-27T03:37:26;103443.50;;;6.31
18161;BMP280;9205;52.032;4.314;2024-01-27T03:39:53;103446.84;;;6.30
18161;BMP280;9205;52.032;4.314;2024-01-27T03:42:21;103450.13;;;6.28
18161;BMP280;9205;52.032;4.314;2024-01-27T03:44:50;103440.94;;;6.30
18161;BMP280;9205;52.032;4.314;2024-01-27T03:47:17;103440.16;;;6.31
18161;BMP280;9205;52.032;4.314;2024-01-27T03:49:44;103447.47;;;6.25
18161;BMP280;9205;52.032;4.314;2024-01-27T03:52:13;103442.34;;;6.22
18161;BMP280;9205;52.032;4.314;2024-01-27T03:54:40;103429.72;;;6.22
18161;BMP280;9205;52.032;4.314;2024-01-27T03:57:07;103423.69;;;6.19
18161;BMP280;9205;52.032;4.314;2024-01-27T03:59:35;103425.13;;;6.12
18161;BMP280;9205;52.032;4.314;2024-01-27T04:02:02;103425.88;;;6.10
18161;BMP280;9205;52.032;4.314;2024-01-27T04:04:30;103423.03;;;6.02
18161;BMP280;9205;52.032;4.314;2024-01-27T04:06:57;103433.28;;;6.05
18161;BMP280;9205;52.032;4.314;2024-01-27T04:09:25;103439.06;;;6.03
18161;BMP280;9205;52.032;4.314;2024-01-27T04:11:53;103444.97;;;6.03
18161;BMP280;9205;52.032;4.314;2024-01-27T04:14:20;103449.25;;;6.06
18161;BMP280;9205;52.032;4.314;2024-01-27T04:16:47;103456.75;;;6.03
18161;BMP280;9205;52.032;4.314;2024-01-27T04:19:15;103446.47;;;5.98
18161;BMP280;9205;52.032;4.314;2024-01-27T04:21:42;103461.63;;;5.98
18161;BMP280;9205;52.032;4.314;2024-01-27T04:24:09;103444.88;;;6.00
18161;BMP280;9205;52.032;4.314;2024-01-27T04:26:37;103450.72;;;5.99
18161;BMP280;9205;52.032;4.314;2024-01-27T04:29:05;103439.66;;;5.96
18161;BMP280;9205;52.032;4.314;2024-01-27T04:31:32;103448.19;;;5.99
18161;BMP280;9205;52.032;4.314;2024-01-27T04:33:59;103433.91;;;6.00
18161;BMP280;9205;52.032;4.314;2024-01-27T04:36:27;103429.59;;;5.97
18161;BMP280;9205;52.032;4.314;2024-01-27T04:38:55;103431.19;;;5.95
18161;BMP280;9205;52.032;4.314;2024-01-27T04:41:22;103437.88;;;5.93
18161;BMP280;9205;52.032;4.314;2024-01-27T04:43:50;103436.81;;;5.88
18161;BMP280;9205;52.032;4.314;2024-01-27T04:46:19;103453.50;;;5.85
18161;BMP280;9205;52.032;4.314;2024-01-27T04:48:46;103441.66;;;5.82
18161;BMP280;9205;52.032;4.314;2024-01-27T04:51:13;103444.31;;;5.85
18161;BMP280;9205;52.032;4.314;2024-01-27T04:53:40;103437.34;;;5.80
18161;BMP280;9205;52.032;4.314;2024-01-27T04:56:08;103434.88;;;5.81
18161;BMP280;9205;52.032;4.314;2024-01-27T04:58:35;103449.22;;;5.82
18161;BMP280;9205;52.032;4.314;2024-01-27T05:01:04;103444.66;;;5.74
18161;BMP280;9205;52.032;4.314;2024-01-27T05:03:32;103442.13;;;5.74
18161;BMP280;9205;52.032;4.314;2024-01-27T05:06:00;103443.81;;;5.75
18161;BMP280;9205;52.032;4.314;2024-01-27T05:08:27;103439.78;;;5.78
18161;BMP280;9205;52.032;4.314;2024-01-27T05:10:54;103440.72;;;5.80
18161;BMP280;9205;52.032;4.314;2024-01-27T05:13:21;103444.84;;;5.78
18161;BMP280;9205;52.032;4.314;2024-01-27T05:15:48;103443.03;;;5.76
18161;BMP280;9205;52.032;4.314;2024-01-27T05:18:17;103443.03;;;5.76
18161;BMP280;9205;52.032;4.314;2024-01-27T05:20:44;103447.34;;;5.78
18161;BMP280;9205;52.032;4.314;2024-01-27T05:23:11;103445.75;;;5.80
18161;BMP280;9205;52.032;4.314;2024-01-27T05:25:39;103447.53;;;5.83
18161;BMP280;9205;52.032;4.314;2024-01-27T05:28:06;103449.22;;;5.82
18161;BMP280;9205;52.032;4.314;2024-01-27T05:30:33;103455.06;;;5.81
18161;BMP280;9205;52.032;4.314;2024-01-27T05:33:00;103448.06;;;5.76
18161;BMP280;9205;52.032;4.314;2024-01-27T05:35:29;103450.41;;;5.71
18161;BMP280;9205;52.032;4.314;2024-01-27T05:37:56;103452.88;;;5.70
18161;BMP280;9205;52.032;4.314;2024-01-27T05:40:24;103452.03;;;5.69
18161;BMP280;9205;52.032;4.314;2024-01-27T05:42:51;103456.22;;;5.69
18161;BMP280;9205;52.032;4.314;2024-01-27T05:45:18;103459.44;;;5.65
18161;BMP280;9205;52.032;4.314;2024-01-27T05:47:45;103447.56;;;5.62
18161;BMP280;9205;52.032;4.314;2024-01-27T05:50:12;103448.59;;;5.67
18161;BMP280;9205;52.032;4.314;2024-01-27T05:52:41;103450.41;;;5.71
18161;BMP280;9205;52.032;4.314;2024-01-27T05:55:09;103451.28;;;5.72
18161;BMP280;9205;52.032;4.314;2024-01-27T05:57:38;103436.94;;;5.71
18161;BMP280;9205;52.032;4.314;2024-01-27T06:00:07;103442.66;;;5.67
18161;BMP280;9205;52.032;4.314;2024-01-27T06:02:35;103440.16;;;5.67
18161;BMP280;9205;52.032;4.314;2024-01-27T06:05:03;103435.28;;;5.71
18161;BMP280;9205;52.032;4.314;2024-01-27T06:07:31;103424.28;;;5.69
18161;BMP280;9205;52.032;4.314;2024-01-27T06:09:59;103431.88;;;5.69
18161;BMP280;9205;52.032;4.314;2024-01-27T06:12:26;103430.00;;;5.65
18161;BMP280;9205;52.032;4.314;2024-01-27T06:14:53;103431.59;;;5.63
18161;BMP280;9205;52.032;4.314;2024-01-27T06:17:23;103434.81;;;5.59
18161;BMP280;9205;52.032;4.314;2024-01-27T06:19:50;103440.47;;;5.54
18161;BMP280;9205;52.032;4.314;2024-01-27T06:22:17;103437.91;;;5.52
18161;BMP280;9205;52.032;4.314;2024-01-27T06:24:45;103440.38;;;5.51
18161;BMP280;9205;52.032;4.314;2024-01-27T06:27:13;103452.91;;;5.49
18161;BMP280;9205;52.032;4.314;2024-01-27T06:29:41;103446.28;;;5.51
18161;BMP280;9205;52.032;4.314;2024-01-27T06:32:09;103456.34;;;5.51
18161;BMP280;9205;52.032;4.314;2024-01-27T06:34:37;103450.34;;;5.48
18161;BMP280;9205;52.032;4.314;2024-01-27T06:37:04;103456.22;;;5.48
18161;BMP280;9205;52.032;4.314;2024-01-27T06:39:31;103472.06;;;5.44
18161;BMP280;9205;52.032;4.314;2024-01-27T06:41:58;103464.34;;;5.41
18161;BMP280;9205;52.032;4.314;2024-01-27T06:44:27;103465.28;;;5.43
18161;BMP280;9205;52.032;4.314;2024-01-27T06:46:54;103462.75;;;5.43
18161;BMP280;9205;52.032;4.314;2024-01-27T06:49:21;103461.03;;;5.42
18161;BMP280;9205;52.032;4.314;2024-01-27T06:51:49;103460.94;;;5.40
18161;BMP280;9205;52.032;4.314;2024-01-27T06:54:16;103458.41;;;5.40
18161;BMP280;9205;52.032;4.314;2024-01-27T06:56:43;103474.19;;;5.36
18161;BMP280;9205;52.032;4.314;2024-01-27T06:59:10;103481.56;;;5.31
18161;BMP280;9205;52.032;4.314;2024-01-27T07:01:45;103473.94;;;5.30
18161;BMP280;9205;52.032;4.314;2024-01-27T07:04:14;103468.78;;;5.27
18161;BMP280;9205;52.032;4.314;2024-01-27T07:06:41;103473.06;;;5.29
18161;BMP280;9205;52.032;4.314;2024-01-27T07:09:08;103467.31;;;5.32
18161;BMP280;9205;52.032;4.314;2024-01-27T07:11:36;103466.31;;;5.28
18161;BMP280;9205;52.032;4.314;2024-01-27T07:14:03;103473.06;;;5.29
18161;BMP280;9205;52.032;4.314;2024-01-27T07:16:30;103472.28;;;5.30
18161;BMP280;9205;52.032;4.314;2024-01-27T07:18:59;103477.31;;;5.30
18161;BMP280;9205;52.032;4.314;2024-01-27T07:21:27;103471.69;;;5.36
18161;BMP280;9205;52.032;4.314;2024-01-27T07:23:55;103474.19;;;5.36
18161;BMP280;9205;52.032;4.314;2024-01-27T07:26:22;103456.53;;;5.36
18161;BMP280;9205;52.032;4.314;2024-01-27T07:28:49;103460.78;;;5.37
18161;BMP280;9205;52.032;4.314;2024-01-27T07:31:16;103459.06;;;5.36
18161;BMP280;9205;52.032;4.314;2024-01-27T07:33:43;103460.78;;;5.37
18161;BMP280;9205;52.032;4.314;2024-01-27T07:36:12;103465.88;;;5.38
18161;BMP280;9205;52.032;4.314;2024-01-27T07:38:39;103459.19;;;5.39
18161;BMP280;9205;52.032;4.314;2024-01-27T07:41:07;103474.44;;;5.41
18161;BMP280;9205;52.032;4.314;2024-01-27T07:43:34;103462.75;;;5.43
18161;BMP280;9205;52.032;4.314;2024-01-27T07:46:01;103464.47;;;5.44
18161;BMP280;9205;52.032;4.314;2024-01-27T07:48:28;103466.22;;;5.45
18161;BMP280;9205;52.032;4.314;2024-01-27T07:50:55;103467.94;;;5.46
18161;BMP280;9205;52.032;4.314;2024-01-27T07:53:25;103468.00;;;5.48
18161;BMP280;9205;52.032;4.314;2024-01-27T07:55:52;103462.81;;;5.45
18161;BMP280;9205;52.032;4.314;2024-01-27T07:58:19;103461.03;;;5.42
18161;BMP280;9205;52.032;4.314;2024-01-27T08:00:47;103464.44;;;5.43
18161;BMP280;9205;52.032;4.314;2024-01-27T08:03:14;103460.78;;;5.37
18161;BMP280;9205;52.032;4.314;2024-01-27T08:05:42;103460.66;;;5.34
18161;BMP280;9205;52.032;4.314;2024-01-27T08:08:09;103473.22;;;5.32
18161;BMP280;9205;52.032;4.314;2024-01-27T08:10:38;103480.78;;;5.32
18161;BMP280;9205;52.032;4.314;2024-01-27T08:13:06;103468.22;;;5.34
18161;BMP280;9205;52.032;4.314;2024-01-27T08:15:33;103485.88;;;5.34
18161;BMP280;9205;52.032;4.314;2024-01-27T08:18:01;103485.81;;;5.32
18161;BMP280;9205;52.032;4.314;2024-01-27T08:20:28;103489.94;;;5.30
18161;BMP280;9205;52.032;4.314;2024-01-27T08:22:55;103494.22;;;5.33
18161;BMP280;9205;52.032;4.314;2024-01-27T08:25:22;103499.28;;;5.33
18161;BMP280;9205;52.032;4.314;2024-01-27T08:27:51;103502.88;;;5.38
18161;BMP280;9205;52.032;4.314;2024-01-27T08:30:18;103496.94;;;5.37
18161;BMP280;9205;52.032;4.314;2024-01-27T08:32:45;103503.84;;;5.41
18161;BMP280;9205;52.032;4.314;2024-01-27T08:35:13;103500.41;;;5.39
18161;BMP280;9205;52.032;4.314;2024-01-27T08:37:40;103500.41;;;5.39
18161;BMP280;9205;52.032;4.314;2024-01-27T08:40:08;103508.84;;;5.40
18161;BMP280;9205;52.032;4.314;2024-01-27T08:42:35;103511.53;;;5.44
18161;BMP280;9205;52.032;4.314;2024-01-27T08:45:05;103509.94;;;5.46
18161;BMP280;9205;52.032;4.314;2024-01-27T08:47:32;103509.75;;;5.41
18161;BMP280;9205;52.032;4.314;2024-01-27T08:50:00;103506.56;;;5.45
18161;BMP280;9205;52.032;4.314;2024-01-27T08:52:27;103509.19;;;5.48
18161;BMP280;9205;52.032;4.314;2024-01-27T08:54:55;103503.47;;;5.52
18161;BMP280;9205;52.032;4.314;2024-01-27T08:57:22;103495.97;;;5.54
18161;BMP280;9205;52.032;4.314;2024-01-27T08:59:49;103507.72;;;5.53
18161;BMP280;9205;52.032;4.314;2024-01-27T09:02:17;103492.66;;;5.55
18161;BMP280;9205;52.032;4.314;2024-01-27T09:04:45;103499.41;;;5.56
18161;BMP280;9205;52.032;4.314;2024-01-27T09:07:12;103517.19;;;5.59
18161;BMP280;9205;52.032;4.314;2024-01-27T09:09:39;103509.81;;;5.63
18161;BMP280;9205;52.032;4.314;2024-01-27T09:12:07;103528.44;;;5.67
18161;BMP280;9205;52.032;4.314;2024-01-27T09:14:34;103530.25;;;5.69
18161;BMP280;9205;52.032;4.314;2024-01-27T09:17:02;103517.75;;;5.72
18161;BMP280;9205;52.032;4.314;2024-01-27T09:19:31;103520.41;;;5.75
18161;BMP280;9205;52.032;4.314;2024-01-27T09:21:58;103525.72;;;5.81
18161;BMP280;9205;52.032;4.314;2024-01-27T09:24:26;103516.56;;;5.83
18161;BMP280;9205;52.032;4.314;2024-01-27T09:26:53;103502.44;;;5.88
18161;BMP280;9205;52.032;4.314;2024-01-27T09:29:20;103518.75;;;5.96
18161;BMP280;9205;52.032;4.314;2024-01-27T09:31:47;103513.91;;;6.02
18161;BMP280;9205;52.032;4.314;2024-01-27T09:34:15;103519.09;;;6.05
18161;BMP280;9205;52.032;4.314;2024-01-27T09:36:43;103519.31;;;6.11
18161;BMP280;9205;52.032;4.314;2024-01-27T09:39:10;103509.44;;;6.17
18161;BMP280;9205;52.032;4.314;2024-01-27T09:41:38;103508.06;;;6.25
18161;BMP280;9205;52.032;4.314;2024-01-27T09:44:05;103520.06;;;6.30
18161;BMP280;9205;52.032;4.314;2024-01-27T09:46:33;103530.56;;;6.41
18161;BMP280;9205;52.032;4.314;2024-01-27T09:49:02;103537.56;;;6.48
18161;BMP280;9205;52.032;4.314;2024-01-27T09:51:30;103541.25;;;6.56
18161;BMP280;9205;52.032;4.314;2024-01-27T09:53:59;103544.91;;;6.64
18161;BMP280;9205;52.032;4.314;2024-01-27T09:56:27;103544.41;;;6.72
18161;BMP280;9205;52.032;4.314;2024-01-27T09:58:55;103550.63;;;6.82
18161;BMP280;9205;52.032;4.314;2024-01-27T10:01:24;103535.69;;;6.88
18161;BMP280;9205;52.032;4.314;2024-01-27T10:03:53;103542.59;;;6.92
18161;BMP280;9205;52.032;4.314;2024-01-27T10:06:21;103549.56;;;6.98
18161;BMP280;9205;52.032;4.314;2024-01-27T10:08:55;103544.78;;;7.06
18161;BMP280;9205;52.032;4.314;2024-01-27T10:11:26;103554.25;;;7.11
18161;BMP280;9205;52.032;4.314;2024-01-27T10:13:55;103543.13;;;7.06
18161;BMP280;9205;52.032;4.314;2024-01-27T10:16:23;103545.25;;;7.19
18161;BMP280;9205;52.032;4.314;2024-01-27T10:19:00;103528.66;;;7.27
18161;BMP280;9205;52.032;4.314;2024-01-27T10:21:28;103545.78;;;7.34
18161;BMP280;9205;52.032;4.314;2024-01-27T10:23:55;103535.78;;;7.37
18161;BMP280;9205;52.032;4.314;2024-01-27T10:26:23;103531.66;;;7.41
18161;BMP280;9205;52.032;4.314;2024-01-27T10:28:54;103545.53;;;7.52
18161;BMP280;9205;52.032;4.314;2024-01-27T10:31:26;103535.47;;;7.53
18161;BMP280;9205;52.032;4.314;2024-01-27T10:33:55;103524.63;;;7.57
18161;BMP280;9205;52.032;4.314;2024-01-27T10:36:23;103538.38;;;7.65
18161;BMP280;9205;52.032;4.314;2024-01-27T10:38:51;103547.84;;;7.71
18161;BMP280;9205;52.032;4.314;2024-01-27T10:41:24;103547.34;;;7.80
18161;BMP280;9205;52.032;4.314;2024-01-27T10:43:53;103549.28;;;7.89
18161;BMP280;9205;52.032;4.314;2024-01-27T10:46:21;103545.25;;;7.94
18161;BMP280;9205;52.032;4.314;2024-01-27T10:48:51;103552.09;;;7.96
18161;BMP280;9205;52.032;4.314;2024-01-27T10:51:29;103550.53;;;8.01
18161;BMP280;9205;52.032;4.314;2024-01-27T10:54:01;103555.75;;;8.06
18161;BMP280;9205;52.032;4.314;2024-01-27T10:56:32;103545.84;;;8.13
18161;BMP280;9205;52.032;4.314;2024-01-27T10:59:00;103538.50;;;8.21
18161;BMP280;9205;52.032;4.314;2024-01-27T11:01:29;103542.88;;;8.25
18161;BMP280;9205;52.032;4.314;2024-01-27T11:03:58;103537.88;;;8.28
18161;BMP280;9205;52.032;4.314;2024-01-27T11:06:29;103542.13;;;8.29
18161;BMP280;9205;52.032;4.314;2024-01-27T11:08:56;103538.16;;;8.37
18161;BMP280;9205;52.032;4.314;2024-01-27T11:11:24;103539.41;;;8.51
18161;BMP280;9205;52.032;4.314;2024-01-27T11:13:53;103536.22;;;8.57
18161;BMP280;9205;52.032;4.314;2024-01-27T11:16:22;103534.88;;;8.68
18161;BMP280;9205;52.032;4.314;2024-01-27T11:18:50;103536.66;;;8.72
18161;BMP280;9205;52.032;4.314;2024-01-27T11:21:18;103533.25;;;8.70
18161;BMP280;9205;52.032;4.314;2024-01-27T11:23:47;103533.16;;;8.67
18161;BMP280;9205;52.032;4.314;2024-01-27T11:26:19;103521.44;;;8.72
18161;BMP280;9205;52.032;4.314;2024-01-27T11:28:48;103522.22;;;8.70
18161;BMP280;9205;52.032;4.314;2024-01-27T11:31:19;103526.53;;;8.72
18161;BMP280;9205;52.032;4.314;2024-01-27T11:33:49;103530.78;;;8.73
18161;BMP280;9205;52.032;4.314;2024-01-27T11:36:22;103531.81;;;8.80
18161;BMP280;9205;52.032;4.314;2024-01-27T11:38:51;103534.41;;;8.83
18161;BMP280;9205;52.032;4.314;2024-01-27T11:41:29;103531.94;;;8.84
18161;BMP280;9205;52.032;4.314;2024-01-27T11:43:58;103526.88;;;8.84
18161;BMP280;9205;52.032;4.314;2024-01-27T11:46:29;103541.41;;;8.90
18161;BMP280;9205;52.032;4.314;2024-01-27T11:48:56;103528.81;;;8.94
18161;BMP280;9205;52.032;4.314;2024-01-27T11:51:25;103523.94;;;9.00
18161;BMP280;9205;52.032;4.314;2024-01-27T11:53:52;103519.13;;;9.09
18161;BMP280;9205;52.032;4.314;2024-01-27T11:56:19;103515.94;;;9.18
18161;BMP280;9205;52.032;4.314;2024-01-27T11:58:48;103519.41;;;9.21
18161;BMP280;9205;52.032;4.314;2024-01-27T12:01:15;103515.31;;;9.26
18161;BMP280;9205;52.032;4.314;2024-01-27T12:03:44;103520.50;;;9.31
18161;BMP280;9205;52.032;4.314;2024-01-27T12:06:12;103497.72;;;9.32
18161;BMP280;9205;52.032;4.314;2024-01-27T12:08:41;103492.66;;;9.32
18161;BMP280;9205;52.032;4.314;2024-01-27T12:11:12;103490.13;;;9.32
18161;BMP280;9205;52.032;4.314;2024-01-27T12:13:40;103507.22;;;9.39
18161;BMP280;9205;52.032;4.314;2024-01-27T12:16:08;103506.28;;;9.37
18161;BMP280;9205;52.032;4.314;2024-01-27T12:18:36;103483.56;;;9.41
18161;BMP280;9205;52.032;4.314;2024-01-27T12:21:05;103491.09;;;9.38
18161;BMP280;9205;52.032;4.314;2024-01-27T12:23:32;103474.22;;;9.39
18161;BMP280;9205;52.032;4.314;2024-01-27T12:25:59;103481.88;;;9.42
18161;BMP280;9205;52.032;4.314;2024-01-27T12:28:27;103475.19;;;9.45
18161;BMP280;9205;52.032;4.314;2024-01-27T12:30:55;103481.00;;;9.40
18161;BMP280;9205;52.032;4.314;2024-01-27T12:33:23;103470.78;;;9.38
18161;BMP280;9205;52.032;4.314;2024-01-27T12:35:51;103480.22;;;9.42
18161;BMP280;9205;52.032;4.314;2024-01-27T12:38:22;103478.56;;;9.44
18161;BMP280;9205;52.032;4.314;2024-01-27T12:40:50;103486.28;;;9.49
18161;BMP280;9205;52.032;4.314;2024-01-27T12:43:17;103473.59;;;9.49
18161;BMP280;9205;52.032;4.314;2024-01-27T12:45:44;103470.22;;;9.50
18161;BMP280;9205;52.032;4.314;2024-01-27T12:48:11;103471.16;;;9.53
18161;BMP280;9205;52.032;4.314;2024-01-27T12:50:38;103478.88;;;9.56
18161;BMP280;9205;52.032;4.314;2024-01-27T12:53:06;103476.47;;;9.64
18161;BMP280;9205;52.032;4.314;2024-01-27T12:55:35;103469.84;;;9.69
18161;BMP280;9205;52.032;4.314;2024-01-27T12:58:02;103468.22;;;9.71
18161;BMP280;9205;52.032;4.314;2024-01-27T13:00:29;103467.56;;;9.81
18161;BMP280;9205;52.032;4.314;2024-01-27T13:02:56;103456.69;;;9.85
18161;BMP280;9205;52.032;4.314;2024-01-27T13:05:24;103461.06;;;9.92
18161;BMP280;9205;52.032;4.314;2024-01-27T13:07:51;103459.34;;;9.91
18161;BMP280;9205;52.032;4.314;2024-01-27T13:10:18;103456.81;;;9.91
18161;BMP280;9205;52.032;4.314;2024-01-27T13:12:47;103457.66;;;9.91
18161;BMP280;9205;52.032;4.314;2024-01-27T13:15:14;103458.44;;;9.89
18161;BMP280;9205;52.032;4.314;2024-01-27T13:17:41;103470.41;;;9.93
18161;BMP280;9205;52.032;4.314;2024-01-27T13:20:10;103463.66;;;9.95
18161;BMP280;9205;52.032;4.314;2024-01-27T13:22:37;103456.88;;;9.94
18161;BMP280;9205;52.032;4.314;2024-01-27T13:25:05;103462.81;;;9.94
18161;BMP280;9205;52.032;4.314;2024-01-27T13:27:32;103460.25;;;9.93
18161;BMP280;9205;52.032;4.314;2024-01-27T13:30:02;103461.81;;;9.88
18161;BMP280;9205;52.032;4.314;2024-01-27T13:32:29;103465.03;;;9.81
18161;BMP280;9205;52.032;4.314;2024-01-27T13:34:56;103458.22;;;9.78
18161;BMP280;9205;52.032;4.314;2024-01-27T13:37:24;103458.13;;;9.75
18161;BMP280;9205;52.032;4.314;2024-01-27T13:39:52;103449.75;;;9.78
18161;BMP280;9205;52.032;4.314;2024-01-27T13:42:19;103454.63;;;9.69
18161;BMP280;9205;52.032;4.314;2024-01-27T13:44:46;103461.34;;;9.68
18161;BMP280;9205;52.032;4.314;2024-01-27T13:47:15;103457.97;;;9.68
18161;BMP280;9205;52.032;4.314;2024-01-27T13:49:44;103454.53;;;9.66
18161;BMP280;9205;52.032;4.314;2024-01-27T13:52:11;103452.06;;;9.69
18161;BMP280;9205;52.032;4.314;2024-01-27T13:54:38;103455.53;;;9.72
18161;BMP280;9205;52.032;4.314;2024-01-27T13:57:06;103453.75;;;9.68
18161;BMP280;9205;52.032;4.314;2024-01-27T13:59:34;103452.09;;;9.70
18161;BMP280;9205;52.032;4.314;2024-01-27T14:02:01;103457.97;;;9.68
18161;BMP280;9205;52.032;4.314;2024-01-27T14:04:30;103447.78;;;9.66
18161;BMP280;9205;52.032;4.314;2024-01-27T14:06:57;103452.88;;;9.66
18161;BMP280;9205;52.032;4.314;2024-01-27T14:09:28;103446.91;;;9.66
18161;BMP280;9205;52.032;4.314;2024-01-27T14:11:56;103449.53;;;9.69
18161;BMP280;9205;52.032;4.314;2024-01-27T14:14:23;103444.34;;;9.63
18161;BMP280;9205;52.032;4.314;2024-01-27T14:16:50;103442.53;;;9.59
18161;BMP280;9205;52.032;4.314;2024-01-27T14:19:17;103440.91;;;9.61
18161;BMP280;9205;52.032;4.314;2024-01-27T14:21:46;103442.44;;;9.56
18161;BMP280;9205;52.032;4.314;2024-01-27T14:24:13;103439.84;;;9.51